sensor_id;sensor_type;location;lat;lon;timestamp;pressure;altitude;pressure_sealevel;temperature;humidity
63405;BME280;49541;57.840;12.306;2023-03-04T00:00:28;100286.97;;;3.79;63.44
63405;BME280;49541;57.840;12.306;2023-03-04T00:05:28;100289.44;;;3.24;65.20
63405;BME280;49541;57.840;12.306;2023-03-04T00:10:30;100289.44;;;3.10;65.36
63405;BME280;49541;57.840;12.306;2023-03-04T00:15:30;100301.81;;;2.94;64.81
63405;BME280;49541;57.840;12.306;2023-03-04T00:20:30;100308.41;;;3.44;63.22
63405;BME280;49541;57.840;12.306;2023-03-04T00:25:30;100311.78;;;3.03;63.80
63405;BME280;49541;57.840;12.306;2023-03-04T00:30:31;100310.75;;;2.61;64.27
63405;BME280;49541;57.840;12.306;2023-03-04T00:35:32;100299.09;;;2.35;65.45
63405;BME280;49541;57.840;12.306;2023-03-04T00:40:32;100308.25;;;2.43;61.20
63405;BME280;49541;57.840;12.306;2023-03-04T00:45:32;100316.16;;;2.58;60.12
63405;BME280;49541;57.840;12.306;2023-03-04T00:50:32;100322.19;;;2.60;60.22
63405;BME280;49541;57.840;12.306;2023-03-04T00:55:32;100320.44;;;2.44;61.34
63405;BME280;49541;57.840;12.306;2023-03-04T01:00:32;100323.84;;;2.31;62.16
63405;BME280;49541;57.840;12.306;2023-03-04T01:05:33;100327.06;;;2.36;62.08
63405;BME280;49541;57.840;12.306;2023-03-04T01:10:34;100332.25;;;2.05;62.74
63405;BME280;49541;57.840;12.306;2023-03-04T01:15:35;100334.28;;;1.84;62.78
63405;BME280;49541;57.840;12.306;2023-03-04T01:20:35;100346.34;;;1.55;62.18
63405;BME280;49541;57.840;12.306;2023-03-04T01:25:35;100332.56;;;1.68;61.08
63405;BME280;49541;57.840;12.306;2023-03-04T01:30:35;100332.84;;;1.79;58.57
63405;BME280;49541;57.840;12.306;2023-03-04T01:35:36;100351.47;;;1.74;57.50
63405;BME280;49541;57.840;12.306;2023-03-04T01:40:36;100351.53;;;1.73;55.42
63405;BME280;49541;57.840;12.306;2023-03-04T01:45:36;100339.63;;;1.83;54.77
63405;BME280;49541;57.840;12.306;2023-03-04T01:50:37;100346.88;;;1.78;55.12
63405;BME280;49541;57.840;12.306;2023-03-04T01:55:37;100351.28;;;1.77;55.34
63405;BME280;49541;57.840;12.306;2023-03-04T02:00:37;100357.38;;;1.78;54.46
63405;BME280;49541;57.840;12.306;2023-03-04T02:05:38;100355.00;;;1.73;52.44
63405;BME280;49541;57.840;12.306;2023-03-04T02:10:40;100360.66;;;1.66;51.07
63405;BME280;49541;57.840;12.306;2023-03-04T02:15:41;100369.88;;;1.57;52.10
63405;BME280;49541;57.840;12.306;2023-03-04T02:26:02;100379.34;;;1.77;50.63
63405;BME280;49541;57.840;12.306;2023-03-04T02:31:02;100376.38;;;2.15;50.23
63405;BME280;49541;57.840;12.306;2023-03-04T02:36:02;100377.59;;;2.25;49.92
63405;BME280;49541;57.840;12.306;2023-03-04T02:41:02;100384.72;;;2.07;51.81
63405;BME280;49541;57.840;12.306;2023-03-04T02:46:03;100393.91;;;2.62;50.61
63405;BME280;49541;57.840;12.306;2023-03-04T02:51:04;100397.38;;;2.78;50.24
63405;BME280;49541;57.840;12.306;2023-03-04T02:56:05;100390.75;;;2.87;49.62
63405;BME280;49541;57.840;12.306;2023-03-04T03:01:05;100395.16;;;2.71;50.34
63405;BME280;49541;57.840;12.306;2023-03-04T03:06:05;100394.53;;;2.35;51.25
63405;BME280;49541;57.840;12.306;2023-03-04T03:11:06;100400.84;;;1.50;54.62
63405;BME280;49541;57.840;12.306;2023-03-04T03:16:06;100406.66;;;1.73;51.86
63405;BME280;49541;57.840;12.306;2023-03-04T03:21:06;100409.25;;;1.90;50.22
63405;BME280;49541;57.840;12.306;2023-03-04T03:26:07;100428.41;;;1.41;49.86
63405;BME280;49541;57.840;12.306;2023-03-04T03:31:07;100439.09;;;1.72;48.24
63405;BME280;49541;57.840;12.306;2023-03-04T03:36:07;100444.97;;;1.77;48.35
63405;BME280;49541;57.840;12.306;2023-03-04T03:41:07;100439.13;;;1.54;49.85
63405;BME280;49541;57.840;12.306;2023-03-04T03:46:08;100449.31;;;1.43;48.82
63405;BME280;49541;57.840;12.306;2023-03-04T03:51:08;100456.59;;;1.38;49.39
63405;BME280;49541;57.840;12.306;2023-03-04T03:56:08;100449.16;;;1.46;49.60
63405;BME280;49541;57.840;12.306;2023-03-04T04:01:08;100443.34;;;1.74;47.85
63405;BME280;49541;57.840;12.306;2023-03-04T04:06:08;100457.31;;;1.75;46.73
63405;BME280;49541;57.840;12.306;2023-03-04T04:11:09;100458.28;;;1.39;47.63
63405;BME280;49541;57.840;12.306;2023-03-04T04:16:09;100465.53;;;1.16;48.71
63405;BME280;49541;57.840;12.306;2023-03-04T04:21:09;100470.00;;;1.32;46.01
63405;BME280;49541;57.840;12.306;2023-03-04T04:26:10;100470.16;;;1.29;47.38
63405;BME280;49541;57.840;12.306;2023-03-04T04:31:10;100488.50;;;1.11;47.29
63405;BME280;49541;57.840;12.306;2023-03-04T04:36:12;100486.88;;;1.26;45.92
63405;BME280;49541;57.840;12.306;2023-03-04T04:41:21;100484.56;;;1.02;47.07
63405;BME280;49541;57.840;12.306;2023-03-04T04:46:26;100492.13;;;1.26;46.47
63405;BME280;49541;57.840;12.306;2023-03-04T04:51:26;100495.59;;;1.09;45.64
63405;BME280;49541;57.840;12.306;2023-03-04T04:56:26;100487.94;;;1.05;46.89
63405;BME280;49541;57.840;12.306;2023-03-04T05:01:27;100499.94;;;1.10;46.38
63405;BME280;49541;57.840;12.306;2023-03-04T05:06:27;100496.63;;;0.88;47.02
63405;BME280;49541;57.840;12.306;2023-03-04T05:11:27;100494.94;;;0.87;46.98
63405;BME280;49541;57.840;12.306;2023-03-04T05:16:27;100498.22;;;1.09;46.83
63405;BME280;49541;57.840;12.306;2023-03-04T05:21:27;100503.53;;;0.71;47.80
63405;BME280;49541;57.840;12.306;2023-03-04T05:26:28;100500.53;;;0.60;47.96
63405;BME280;49541;57.840;12.306;2023-03-04T05:31:28;100495.19;;;0.44;48.69
63405;BME280;49541;57.840;12.306;2023-03-04T05:36:28;100500.97;;;0.51;48.41
63405;BME280;49541;57.840;12.306;2023-03-04T05:41:28;100496.34;;;0.56;48.42
63405;BME280;49541;57.840;12.306;2023-03-04T05:46:29;100494.09;;;0.29;48.79
63405;BME280;49541;57.840;12.306;2023-03-04T05:51:29;100498.22;;;0.35;48.92
63405;BME280;49541;57.840;12.306;2023-03-04T05:56:29;100511.53;;;0.49;48.50
63405;BME280;49541;57.840;12.306;2023-03-04T06:01:30;100513.22;;;0.31;49.31
63405;BME280;49541;57.840;12.306;2023-03-04T06:06:30;100527.94;;;0.34;49.28
63405;BME280;49541;57.840;12.306;2023-03-04T06:11:31;100537.38;;;0.57;48.61
63405;BME280;49541;57.840;12.306;2023-03-04T06:16:31;100550.22;;;0.63;48.72
63405;BME280;49541;57.840;12.306;2023-03-04T06:21:31;100571.16;;;0.44;48.57
63405;BME280;49541;57.840;12.306;2023-03-04T06:26:31;100577.44;;;0.40;49.18
63405;BME280;49541;57.840;12.306;2023-03-04T06:31:32;100574.13;;;0.55;48.26
63405;BME280;49541;57.840;12.306;2023-03-04T06:36:32;100592.13;;;0.63;47.23
63405;BME280;49541;57.840;12.306;2023-03-04T06:41:32;100599.34;;;1.15;46.34
63405;BME280;49541;57.840;12.306;2023-03-04T06:46:33;100598.88;;;1.07;47.67
63405;BME280;49541;57.840;12.306;2023-03-04T06:51:33;100609.06;;;0.94;47.07
63405;BME280;49541;57.840;12.306;2023-03-04T06:56:34;100625.94;;;1.07;46.67
63405;BME280;49541;57.840;12.306;2023-03-04T07:01:34;100631.28;;;1.06;46.66
63405;BME280;49541;57.840;12.306;2023-03-04T07:06:35;100643.00;;;1.35;46.79
63405;BME280;49541;57.840;12.306;2023-03-04T07:11:35;100644.44;;;1.04;45.54
63405;BME280;49541;57.840;12.306;2023-03-04T07:16:35;100663.72;;;1.03;46.04
63405;BME280;49541;57.840;12.306;2023-03-04T07:21:36;100677.59;;;1.05;45.79
63405;BME280;49541;57.840;12.306;2023-03-04T07:26:36;100678.94;;;1.14;43.71
63405;BME280;49541;57.840;12.306;2023-03-04T07:31:37;100700.41;;;1.03;45.76
63405;BME280;49541;57.840;12.306;2023-03-04T07:36:37;100696.47;;;1.13;44.75
63405;BME280;49541;57.840;12.306;2023-03-04T07:41:37;100705.13;;;1.53;42.74
63405;BME280;49541;57.840;12.306;2023-03-04T07:46:38;100722.16;;;1.63;41.44
63405;BME280;49541;57.840;12.306;2023-03-04T07:51:38;100721.94;;;1.49;41.72
63405;BME280;49541;57.840;12.306;2023-03-04T07:56:39;100720.25;;;1.66;39.94
63405;BME280;49541;57.840;12.306;2023-03-04T08:01:39;100727.13;;;1.87;39.59
63405;BME280;49541;57.840;12.306;2023-03-04T08:06:40;100736.50;;;2.10;40.19
63405;BME280;49541;57.840;12.306;2023-03-04T08:11:40;100738.63;;;1.66;40.51
63405;BME280;49541;57.840;12.306;2023-03-04T08:16:40;100739.84;;;1.77;41.05
63405;BME280;49541;57.840;12.306;2023-03-04T08:21:40;100738.72;;;1.83;38.56
63405;BME280;49541;57.840;12.306;2023-03-04T08:26:42;100743.06;;;2.01;38.64
63405;BME280;49541;57.840;12.306;2023-03-04T08:31:42;100729.84;;;1.86;38.29
63405;BME280;49541;57.840;12.306;2023-03-04T08:36:45;100739.31;;;2.24;37.24
63405;BME280;49541;57.840;12.306;2023-03-04T08:41:45;100741.88;;;2.26;38.99
63405;BME280;49541;57.840;12.306;2023-03-04T08:46:46;100737.00;;;2.18;37.11
63405;BME280;49541;57.840;12.306;2023-03-04T08:51:46;100740.72;;;2.32;37.48
63405;BME280;49541;57.840;12.306;2023-03-04T08:56:46;100736.88;;;2.39;37.96
63405;BME280;49541;57.840;12.306;2023-03-04T09:01:46;100734.13;;;2.40;36.23
63405;BME280;49541;57.840;12.306;2023-03-04T09:06:46;100743.19;;;2.70;34.32
63405;BME280;49541;57.840;12.306;2023-03-04T09:11:47;100735.69;;;2.62;36.54
63405;BME280;49541;57.840;12.306;2023-03-04T09:16:47;100742.94;;;2.74;36.47
63405;BME280;49541;57.840;12.306;2023-03-04T09:21:47;100737.94;;;3.03;35.20
63405;BME280;49541;57.840;12.306;2023-03-04T09:26:51;100743.03;;;3.06;35.95
63405;BME280;49541;57.840;12.306;2023-03-04T09:31:51;100727.97;;;2.92;33.81
63405;BME280;49541;57.840;12.306;2023-03-04T09:36:51;100727.97;;;3.25;33.26
63405;BME280;49541;57.840;12.306;2023-03-04T09:41:52;100734.06;;;3.10;34.78
63405;BME280;49541;57.840;12.306;2023-03-04T09:46:57;100727.16;;;3.07;32.58
63405;BME280;49541;57.840;12.306;2023-03-04T09:57:26;100717.25;;;3.28;34.05
63405;BME280;49541;57.840;12.306;2023-03-04T10:02:34;100718.47;;;3.23;33.67
63405;BME280;49541;57.840;12.306;2023-03-04T10:07:37;100722.63;;;3.43;32.95
63405;BME280;49541;57.840;12.306;2023-03-04T10:12:40;100711.59;;;3.52;33.03
63405;BME280;49541;57.840;12.306;2023-03-04T10:17:43;100708.53;;;3.76;33.85
63405;BME280;49541;57.840;12.306;2023-03-04T10:22:46;100701.63;;;3.89;31.98
63405;BME280;49541;57.840;12.306;2023-03-04T10:27:51;100719.09;;;4.22;31.52
63405;BME280;49541;57.840;12.306;2023-03-04T10:32:53;100707.72;;;4.05;32.10
63405;BME280;49541;57.840;12.306;2023-03-04T10:37:54;100695.22;;;4.39;31.29
63405;BME280;49541;57.840;12.306;2023-03-04T10:42:54;100707.66;;;4.37;29.88
63405;BME280;49541;57.840;12.306;2023-03-04T10:47:55;100702.41;;;4.66;31.26
63405;BME280;49541;57.840;12.306;2023-03-04T10:52:55;100710.34;;;4.95;27.35
63405;BME280;49541;57.840;12.306;2023-03-04T10:58:06;100698.84;;;4.67;27.34
63405;BME280;49541;57.840;12.306;2023-03-04T11:08:22;100683.09;;;5.64;26.63
63405;BME280;49541;57.840;12.306;2023-03-04T11:13:24;100688.03;;;5.56;26.24
63405;BME280;49541;57.840;12.306;2023-03-04T11:23:34;100673.22;;;6.08;26.75
63405;BME280;49541;57.840;12.306;2023-03-04T11:28:41;100683.22;;;6.30;25.90
63405;BME280;49541;57.840;12.306;2023-03-04T11:38:45;100664.97;;;6.78;26.67
63405;BME280;49541;57.840;12.306;2023-03-04T11:43:46;100674.19;;;7.22;26.27
63405;BME280;49541;57.840;12.306;2023-03-04T11:48:58;100656.13;;;6.90;26.63
63405;BME280;49541;57.840;12.306;2023-03-04T12:14:11;100630.66;;;7.98;24.34
63405;BME280;49541;57.840;12.306;2023-03-04T12:24:31;100647.94;;;8.62;24.64
63405;BME280;49541;57.840;12.306;2023-03-04T12:35:26;100625.75;;;8.97;23.46
63405;BME280;49541;57.840;12.306;2023-03-04T12:45:31;100613.84;;;7.87;21.92
63405;BME280;49541;57.840;12.306;2023-03-04T12:50:38;100610.88;;;6.69;23.32
63405;BME280;49541;57.840;12.306;2023-03-04T12:55:41;100598.44;;;7.56;23.91
63405;BME280;49541;57.840;12.306;2023-03-04T13:00:45;100595.38;;;7.50;22.05
63405;BME280;49541;57.840;12.306;2023-03-04T13:11:31;100579.03;;;7.08;23.88
63405;BME280;49541;57.840;12.306;2023-03-04T13:21:24;100570.19;;;8.15;21.67
63405;BME280;49541;57.840;12.306;2023-03-04T13:26:28;100571.25;;;6.93;23.00
63405;BME280;49541;57.840;12.306;2023-03-04T13:31:30;100570.25;;;6.45;24.16
63405;BME280;49541;57.840;12.306;2023-03-04T13:36:32;100560.97;;;7.61;22.50
63405;BME280;49541;57.840;12.306;2023-03-04T13:41:45;100548.72;;;7.12;23.72
63405;BME280;49541;57.840;12.306;2023-03-04T13:46:46;100557.78;;;6.21;23.82
63405;BME280;49541;57.840;12.306;2023-03-04T13:51:46;100538.38;;;8.37;23.15
63405;BME280;49541;57.840;12.306;2023-03-04T13:56:47;100537.63;;;9.14;22.53
63405;BME280;49541;57.840;12.306;2023-03-04T14:01:50;100532.53;;;7.52;21.89
63405;BME280;49541;57.840;12.306;2023-03-04T14:06:52;100537.78;;;9.34;20.90
63405;BME280;49541;57.840;12.306;2023-03-04T14:11:56;100522.81;;;8.89;21.91
63405;BME280;49541;57.840;12.306;2023-03-04T14:16:59;100515.78;;;9.64;21.53
63405;BME280;49541;57.840;12.306;2023-03-04T14:22:00;100512.97;;;10.29;20.85
63405;BME280;49541;57.840;12.306;2023-03-04T14:27:08;100512.72;;;10.32;21.11
63405;BME280;49541;57.840;12.306;2023-03-04T14:32:10;100498.13;;;9.10;22.79
63405;BME280;49541;57.840;12.306;2023-03-04T14:37:23;100503.53;;;8.76;24.59
63405;BME280;49541;57.840;12.306;2023-03-04T14:42:26;100507.34;;;8.04;25.02
63405;BME280;49541;57.840;12.306;2023-03-04T14:57:34;100484.56;;;7.08;26.01
63405;BME280;49541;57.840;12.306;2023-03-04T15:02:42;100482.41;;;8.74;25.66
63405;BME280;49541;57.840;12.306;2023-03-04T15:07:42;100473.38;;;9.62;23.16
63405;BME280;49541;57.840;12.306;2023-03-04T15:12:49;100468.78;;;9.86;21.47
63405;BME280;49541;57.840;12.306;2023-03-04T15:17:56;100456.97;;;9.36;22.14
63405;BME280;49541;57.840;12.306;2023-03-04T15:22:58;100453.78;;;8.89;22.67
63405;BME280;49541;57.840;12.306;2023-03-04T15:27:59;100463.75;;;8.53;24.82
63405;BME280;49541;57.840;12.306;2023-03-04T15:32:59;100449.13;;;7.91;23.06
63405;BME280;49541;57.840;12.306;2023-03-04T15:38:00;100455.53;;;7.07;23.98
63405;BME280;49541;57.840;12.306;2023-03-04T15:43:01;100447.13;;;7.02;24.14
63405;BME280;49541;57.840;12.306;2023-03-04T15:48:03;100444.00;;;6.84;25.45
63405;BME280;49541;57.840;12.306;2023-03-04T15:53:08;100438.50;;;6.63;25.16
63405;BME280;49541;57.840;12.306;2023-03-04T15:58:09;100440.47;;;5.32;26.37
63405;BME280;49541;57.840;12.306;2023-03-04T16:03:17;100443.34;;;5.55;24.92
63405;BME280;49541;57.840;12.306;2023-03-04T16:08:19;100437.03;;;5.70;24.26
63405;BME280;49541;57.840;12.306;2023-03-04T16:13:21;100427.00;;;6.01;24.74
63405;BME280;49541;57.840;12.306;2023-03-04T16:18:21;100423.06;;;6.20;24.13
63405;BME280;49541;57.840;12.306;2023-03-04T16:23:23;100430.03;;;6.21;24.59
63405;BME280;49541;57.840;12.306;2023-03-04T16:28:23;100424.22;;;5.90;25.20
63405;BME280;49541;57.840;12.306;2023-03-04T16:33:23;100426.59;;;5.16;27.71
63405;BME280;49541;57.840;12.306;2023-03-04T16:38:25;100430.38;;;4.72;27.36
63405;BME280;49541;57.840;12.306;2023-03-04T16:43:27;100420.44;;;4.48;28.66
63405;BME280;49541;57.840;12.306;2023-03-04T16:48:27;100426.69;;;4.33;29.93
63405;BME280;49541;57.840;12.306;2023-03-04T16:53:30;100425.78;;;4.20;28.35
63405;BME280;49541;57.840;12.306;2023-03-04T16:58:30;100422.09;;;4.08;28.68
63405;BME280;49541;57.840;12.306;2023-03-04T17:03:31;100426.69;;;4.47;28.47
63405;BME280;49541;57.840;12.306;2023-03-04T17:08:31;100438.25;;;4.45;27.91
63405;BME280;49541;57.840;12.306;2023-03-04T17:13:31;100430.28;;;3.60;29.59
63405;BME280;49541;57.840;12.306;2023-03-04T17:18:32;100432.34;;;3.69;30.14
63405;BME280;49541;57.840;12.306;2023-03-04T17:23:32;100431.81;;;3.79;30.49
63405;BME280;49541;57.840;12.306;2023-03-04T17:28:34;100418.44;;;3.53;29.97
63405;BME280;49541;57.840;12.306;2023-03-04T17:33:34;100417.38;;;3.41;30.11
63405;BME280;49541;57.840;12.306;2023-03-04T17:38:34;100421.75;;;3.12;31.16
63405;BME280;49541;57.840;12.306;2023-03-04T17:43:34;100406.81;;;2.97;30.02
63405;BME280;49541;57.840;12.306;2023-03-04T17:48:35;100423.06;;;3.19;29.88
63405;BME280;49541;57.840;12.306;2023-03-04T17:53:35;100419.06;;;2.98;29.47
63405;BME280;49541;57.840;12.306;2023-03-04T17:58:36;100422.38;;;3.16;28.86
63405;BME280;49541;57.840;12.306;2023-03-04T18:03:36;100416.06;;;2.74;30.33
63405;BME280;49541;57.840;12.306;2023-03-04T18:08:36;100406.56;;;2.39;31.58
63405;BME280;49541;57.840;12.306;2023-03-04T18:13:40;100410.56;;;2.31;31.50
63405;BME280;49541;57.840;12.306;2023-03-04T18:18:41;100399.31;;;2.91;29.92
63405;BME280;49541;57.840;12.306;2023-03-04T18:23:41;100392.66;;;2.69;30.94
63405;BME280;49541;57.840;12.306;2023-03-04T18:28:42;100383.34;;;2.48;31.68
63405;BME280;49541;57.840;12.306;2023-03-04T18:33:42;100383.13;;;2.66;31.38
63405;BME280;49541;57.840;12.306;2023-03-04T18:38:42;100380.75;;;1.82;34.09
63405;BME280;49541;57.840;12.306;2023-03-04T18:43:42;100374.47;;;1.69;35.14
63405;BME280;49541;57.840;12.306;2023-03-04T18:48:46;100374.94;;;1.93;35.43
63405;BME280;49541;57.840;12.306;2023-03-04T18:53:48;100362.63;;;1.78;35.22
63405;BME280;49541;57.840;12.306;2023-03-04T18:58:48;100362.13;;;1.87;34.96
63405;BME280;49541;57.840;12.306;2023-03-04T19:03:50;100348.47;;;1.64;36.23
63405;BME280;49541;57.840;12.306;2023-03-04T19:08:51;100342.47;;;1.62;37.42
63405;BME280;49541;57.840;12.306;2023-03-04T19:13:54;100346.81;;;1.46;38.28
63405;BME280;49541;57.840;12.306;2023-03-04T19:18:54;100344.44;;;1.75;37.83
63405;BME280;49541;57.840;12.306;2023-03-04T19:23:54;100338.19;;;2.25;36.32
63405;BME280;49541;57.840;12.306;2023-03-04T19:28:54;100331.78;;;2.61;34.61
63405;BME280;49541;57.840;12.306;2023-03-04T19:33:55;100331.28;;;2.54;34.76
63405;BME280;49541;57.840;12.306;2023-03-04T19:38:55;100329.78;;;1.71;35.91
63405;BME280;49541;57.840;12.306;2023-03-04T19:43:55;100331.13;;;1.29;37.42
63405;BME280;49541;57.840;12.306;2023-03-04T19:48:56;100337.09;;;1.15;37.69
63405;BME280;49541;57.840;12.306;2023-03-04T19:53:56;100329.44;;;1.77;36.38
63405;BME280;49541;57.840;12.306;2023-03-04T19:58:56;100321.09;;;1.19;38.35
63405;BME280;49541;57.840;12.306;2023-03-04T20:04:00;100320.78;;;1.26;38.15
63405;BME280;49541;57.840;12.306;2023-03-04T20:09:01;100320.50;;;0.79;39.38
63405;BME280;49541;57.840;12.306;2023-03-04T20:14:02;100315.97;;;0.83;39.74
63405;BME280;49541;57.840;12.306;2023-03-04T20:19:03;100319.28;;;1.04;38.36
63405;BME280;49541;57.840;12.306;2023-03-04T20:24:03;100317.91;;;0.97;38.82
63405;BME280;49541;57.840;12.306;2023-03-04T20:29:03;100313.88;;;0.90;39.65
63405;BME280;49541;57.840;12.306;2023-03-04T20:34:04;100305.22;;;1.05;38.40
63405;BME280;49541;57.840;12.306;2023-03-04T20:39:06;100305.06;;;1.26;37.81
63405;BME280;49541;57.840;12.306;2023-03-04T20:44:06;100305.19;;;0.72;39.32
63405;BME280;49541;57.840;12.306;2023-03-04T20:49:08;100308.81;;;0.52;39.69
63405;BME280;49541;57.840;12.306;2023-03-04T20:54:09;100299.53;;;0.45;40.65
63405;BME280;49541;57.840;12.306;2023-03-04T20:59:09;100299.09;;;0.54;40.03
63405;BME280;49541;57.840;12.306;2023-03-04T21:04:10;100288.56;;;0.19;41.11
63405;BME280;49541;57.840;12.306;2023-03-04T21:09:12;100277.75;;;0.08;41.55
63405;BME280;49541;57.840;12.306;2023-03-04T21:14:20;100291.13;;;0.02;42.06
63405;BME280;49541;57.840;12.306;2023-03-04T21:19:24;100278.28;;;0.33;40.83
63405;BME280;49541;57.840;12.306;2023-03-04T21:24:27;100272.88;;;0.36;41.02
63405;BME280;49541;57.840;12.306;2023-03-04T21:29:28;100273.38;;;0.26;41.45
63405;BME280;49541;57.840;12.306;2023-03-04T21:34:35;100263.56;;;-0.06;41.59
63405;BME280;49541;57.840;12.306;2023-03-04T21:39:36;100268.25;;;-0.12;41.89
63405;BME280;49541;57.840;12.306;2023-03-04T21:44:36;100261.16;;;0.09;41.42
63405;BME280;49541;57.840;12.306;2023-03-04T21:49:36;100252.81;;;0.01;43.06
63405;BME280;49541;57.840;12.306;2023-03-04T21:54:37;100238.53;;;-0.30;43.24
63405;BME280;49541;57.840;12.306;2023-03-04T21:59:37;100239.47;;;-0.88;45.10
63405;BME280;49541;57.840;12.306;2023-03-04T22:04:37;100238.75;;;-0.35;44.14
63405;BME280;49541;57.840;12.306;2023-03-04T22:09:39;100234.47;;;-0.55;45.15
63405;BME280;49541;57.840;12.306;2023-03-04T22:14:39;100236.88;;;-1.09;46.38
63405;BME280;49541;57.840;12.306;2023-03-04T22:19:39;100234.94;;;-1.24;46.70
63405;BME280;49541;57.840;12.306;2023-03-04T22:24:40;100233.81;;;-1.59;48.36
63405;BME280;49541;57.840;12.306;2023-03-04T22:29:40;100232.19;;;-1.82;47.90
63405;BME280;49541;57.840;12.306;2023-03-04T22:34:40;100227.75;;;-2.02;49.29
63405;BME280;49541;57.840;12.306;2023-03-04T22:39:40;100228.75;;;-1.62;48.68
63405;BME280;49541;57.840;12.306;2023-03-04T22:44:40;100219.78;;;-1.77;48.51
63405;BME280;49541;57.840;12.306;2023-03-04T22:49:40;100216.59;;;-1.63;49.21
63405;BME280;49541;57.840;12.306;2023-03-04T22:54:41;100215.16;;;-1.91;49.59
63405;BME280;49541;57.840;12.306;2023-03-04T22:59:41;100209.28;;;-2.18;49.88
63405;BME280;49541;57.840;12.306;2023-03-04T23:04:41;100195.22;;;-2.36;51.02
63405;BME280;49541;57.840;12.306;2023-03-04T23:09:41;100192.19;;;-2.25;50.58
63405;BME280;49541;57.840;12.306;2023-03-04T23:14:41;100184.88;;;-1.95;49.85
63405;BME280;49541;57.840;12.306;2023-03-04T23:19:43;100189.63;;;-2.49;50.65
63405;BME280;49541;57.840;12.306;2023-03-04T23:24:43;100186.72;;;-2.41;51.54
63405;BME280;49541;57.840;12.306;2023-03-04T23:29:44;100181.50;;;-2.41;51.13
63405;BME280;49541;57.840;12.306;2023-03-04T23:34:44;100173.84;;;-2.68;52.44
63405;BME280;49541;57.840;12.306;2023-03-04T23:39:44;100164.44;;;-2.50;51.67
63405;BME280;49541;57.840;12.306;2023-03-04T23:44:44;100171.81;;;-2.60;51.61
63405;BME280;49541;57.840;12.306;2023-03-04T23:49:44;100168.66;;;-3.15;52.84
63405;BME280;49541;57.840;12.306;2023-03-04T23:54:45;100169.66;;;-3.43;54.67
63405;BME280;49541;57.840;12.306;2023-03-04T23:59:45;100159.38;;;-3.46;54.63
